»·PEaware :: TANKER72 KHMT-KHMT

TANKER72 :: KHMT-KHMT

FLIGHT INFORMATION

Flight Status: Arrived
Operator: Unknown
More flights by this operator :: More flights under this callsign
Pilot: Tony R. (89)
Aircraft: GRUMMAN AERO S-2 TURBO TRACKER
(S2T)
More flights by this aircraft type
Origin: KHMT Hemet-Ryan
United States
Destination: KHMT Hemet-Ryan
United States
More flights between these airports :: More routes between these airports
Route: PDZ POM
File this flight plan on PilotEdge
Remarks: Firefighting ops TFR 4 / 3114. 7.8nm 301 Radial POM VOR
Altitude:
(Current/Filed)
2,500ft
Speed:
(Current/Filed)
215kts
Departed: 18-Jan-14 03:32 PM
Arrived: 18-Jan-14 04:12 PM
Distance/Time
Traveled:
13nm/0:39
Distance/Time
To Go:
Arrived

Flight Plot

Page will automatically refresh every two minutes.


Map Options




Map Legend


Flown Route
Filed Route
Departure Airport
Arrival Airport
Navaid (VOR, NDB)
Fix

Horizontal Profiles

Position Reports

Time Latitude Longitude Heading Altitude Ground
Speed
18-Jan-14 15:22 33.730597 -117.021694 299 1517ft 0kts
18-Jan-14 15:23 33.730597 -117.021694 299 1517ft 0kts
18-Jan-14 15:24 33.730597 -117.021694 299 1517ft 0kts
18-Jan-14 15:25 33.730597 -117.021694 299 1517ft 0kts
18-Jan-14 15:26 33.731213 -117.020955 66 1517ft 19kts
18-Jan-14 15:27 33.734693 -117.017330 350 1517ft 3kts
18-Jan-14 15:28 33.735957 -117.016957 243 1517ft 14kts
18-Jan-14 15:29 33.725994 -117.043717 235 2232ft 119kts
18-Jan-14 15:30 33.711689 -117.088925 269 3354ft 156kts
18-Jan-14 15:31 33.712184 -117.148105 279 2433ft 175kts
18-Jan-14 15:32 33.720558 -117.204853 285 2429ft 170kts
18-Jan-14 15:33 33.739322 -117.257063 301 2519ft 168kts
18-Jan-14 15:34 33.766453 -117.302370 307 2742ft 163kts
18-Jan-14 15:35 33.796274 -117.350878 307 2785ft 196kts
18-Jan-14 15:36 33.831416 -117.402937 311 2535ft 195kts
18-Jan-14 15:37 33.865010 -117.449809 305 2483ft 176kts
18-Jan-14 15:38 33.897048 -117.499602 311 2550ft 205kts
18-Jan-14 15:39 33.933498 -117.552992 300 2529ft 202kts
18-Jan-14 15:40 33.960064 -117.612830 299 2530ft 202kts
18-Jan-14 15:41 33.989517 -117.669811 307 2533ft 202kts
18-Jan-14 15:42 34.023366 -117.723841 314 2537ft 200kts
18-Jan-14 15:43 34.062051 -117.772839 317 2530ft 201kts
18-Jan-14 15:44 34.102558 -117.819381 317 2534ft 201kts
18-Jan-14 15:45 34.148095 -117.851069 334 3131ft 182kts
18-Jan-14 15:46 34.155856 -117.904357 212 3829ft 193kts
18-Jan-14 15:47 34.136197 -117.857418 72 3557ft 202kts
18-Jan-14 15:48 34.164717 -117.868981 267 3415ft 198kts
18-Jan-14 15:49 34.136350 -117.917757 166 3506ft 202kts
18-Jan-14 15:50 34.130412 -117.858620 67 3510ft 203kts
18-Jan-14 15:51 34.165161 -117.831187 318 4259ft 135kts
18-Jan-14 15:52 34.181143 -117.871090 276 4815ft 138kts
18-Jan-14 15:53 34.157936 -117.890971 145 2265ft 140kts
18-Jan-14 15:54 34.132522 -117.859568 136 1262ft 125kts
18-Jan-14 15:55 34.104725 -117.818949 130 1315ft 181kts
18-Jan-14 15:56 34.064968 -117.771454 130 1591ft 218kts
18-Jan-14 15:57 34.025382 -117.715019 131 1581ft 221kts
18-Jan-14 15:58 33.984825 -117.657650 131 1580ft 221kts
18-Jan-14 15:59 33.944847 -117.601014 129 1578ft 221kts
18-Jan-14 16:00 33.911557 -117.538650 122 1579ft 222kts
18-Jan-14 16:01 33.884336 -117.473236 123 2006ft 211kts
18-Jan-14 16:02 33.851648 -117.408476 122 2941ft 249kts
18-Jan-14 16:03 33.821324 -117.348831 122 3540ft 233kts
18-Jan-14 16:04 33.785413 -117.287517 138 3575ft 223kts
18-Jan-14 16:05 33.739621 -117.237785 132 3562ft 224kts
18-Jan-14 16:06 33.734065 -117.151383 89 3570ft 227kts
18-Jan-14 16:07 33.726836 -117.081333 108 2322ft 174kts
18-Jan-14 16:08 33.725065 -117.042375 63 1791ft 126kts
18-Jan-14 16:09 33.736001 -117.016585 92 1517ft 11kts
18-Jan-14 16:10 33.732371 -117.017889 243 1517ft 19kts
18-Jan-14 16:11 33.730543 -117.022031 305 1517ft 0kts
18-Jan-14 16:12 33.730543 -117.022031 305 1517ft 0kts
18-Jan-14 16:13 33.730543 -117.022031 305 1517ft 0kts
18-Jan-14 16:14 33.730543 -117.022031 305 1517ft 0kts
18-Jan-14 16:15 33.730543 -117.022031 305 1517ft 0kts
18-Jan-14 16:17 33.735831 -117.016428 325 1517ft 0kts
18-Jan-14 16:18 33.735508 -117.017962 242 1517ft 38kts
18-Jan-14 16:19 33.722977 -117.047153 252 2184ft 127kts
18-Jan-14 16:20 33.710739 -117.097766 257 2478ft 182kts
18-Jan-14 16:21 33.719243 -117.159396 281 2472ft 185kts
18-Jan-14 16:22 33.721992 -117.220020 266 2531ft 183kts
18-Jan-14 16:23 33.734625 -117.278164 294 2533ft 183kts

Navigation Log

Ident Type
Flight plan parsing failed, navigation log unavailable